sensor_id;sensor_type;location;lat;lon;timestamp;P1;durP1;ratioP1;P2;durP2;ratioP2
30635;SDS011;17400;52.392;9.750;2023-09-07T00:00:23;4.22;;;2.72;;
30635;SDS011;17400;52.392;9.750;2023-09-07T00:02:50;3.15;;;2.30;;
30635;SDS011;17400;52.392;9.750;2023-09-07T00:05:18;3.50;;;2.38;;
30635;SDS011;17400;52.392;9.750;2023-09-07T00:07:46;4.05;;;2.67;;
30635;SDS011;17400;52.392;9.750;2023-09-07T00:10:14;5.47;;;2.78;;
30635;SDS011;17400;52.392;9.750;2023-09-07T00:12:44;4.45;;;2.80;;
30635;SDS011;17400;52.392;9.750;2023-09-07T00:15:14;3.67;;;2.30;;
30635;SDS011;17400;52.392;9.750;2023-09-07T00:17:41;4.57;;;2.80;;
30635;SDS011;17400;52.392;9.750;2023-09-07T00:20:10;3.97;;;2.25;;
30635;SDS011;17400;52.392;9.750;2023-09-07T00:22:40;4.90;;;2.78;;
30635;SDS011;17400;52.392;9.750;2023-09-07T00:25:08;5.25;;;2.80;;
30635;SDS011;17400;52.392;9.750;2023-09-07T00:27:36;3.85;;;2.38;;
30635;SDS011;17400;52.392;9.750;2023-09-07T00:30:04;3.88;;;2.60;;
30635;SDS011;17400;52.392;9.750;2023-09-07T00:32:36;3.38;;;2.30;;
30635;SDS011;17400;52.392;9.750;2023-09-07T00:35:05;3.75;;;2.70;;
30635;SDS011;17400;52.392;9.750;2023-09-07T00:37:33;6.30;;;3.10;;
30635;SDS011;17400;52.392;9.750;2023-09-07T00:40:01;4.57;;;2.55;;
30635;SDS011;17400;52.392;9.750;2023-09-07T00:42:30;3.67;;;2.58;;
30635;SDS011;17400;52.392;9.750;2023-09-07T00:44:58;4.97;;;2.75;;
30635;SDS011;17400;52.392;9.750;2023-09-07T00:47:25;3.28;;;2.10;;
30635;SDS011;17400;52.392;9.750;2023-09-07T00:49:55;3.58;;;2.50;;
30635;SDS011;17400;52.392;9.750;2023-09-07T00:52:25;4.75;;;2.88;;
30635;SDS011;17400;52.392;9.750;2023-09-07T00:54:53;5.20;;;3.10;;
30635;SDS011;17400;52.392;9.750;2023-09-07T00:57:21;4.47;;;2.72;;
30635;SDS011;17400;52.392;9.750;2023-09-07T00:59:49;5.10;;;3.75;;
30635;SDS011;17400;52.392;9.750;2023-09-07T01:02:17;6.93;;;2.90;;
30635;SDS011;17400;52.392;9.750;2023-09-07T01:04:45;4.35;;;2.78;;
30635;SDS011;17400;52.392;9.750;2023-09-07T01:07:16;3.85;;;2.70;;
30635;SDS011;17400;52.392;9.750;2023-09-07T01:09:46;5.07;;;3.10;;
30635;SDS011;17400;52.392;9.750;2023-09-07T01:12:16;4.10;;;3.15;;
30635;SDS011;17400;52.392;9.750;2023-09-07T01:14:44;4.78;;;3.47;;
30635;SDS011;17400;52.392;9.750;2023-09-07T01:17:12;4.63;;;2.58;;
30635;SDS011;17400;52.392;9.750;2023-09-07T01:19:41;4.22;;;2.72;;
30635;SDS011;17400;52.392;9.750;2023-09-07T01:22:10;4.90;;;3.25;;
30635;SDS011;17400;52.392;9.750;2023-09-07T01:24:39;3.30;;;2.30;;
30635;SDS011;17400;52.392;9.750;2023-09-07T01:27:08;4.05;;;2.63;;
30635;SDS011;17400;52.392;9.750;2023-09-07T01:29:36;5.85;;;2.85;;
30635;SDS011;17400;52.392;9.750;2023-09-07T01:32:05;4.25;;;2.83;;
30635;SDS011;17400;52.392;9.750;2023-09-07T01:34:33;3.90;;;2.83;;
30635;SDS011;17400;52.392;9.750;2023-09-07T01:37:01;4.25;;;2.50;;
30635;SDS011;17400;52.392;9.750;2023-09-07T01:39:30;4.60;;;2.80;;
30635;SDS011;17400;52.392;9.750;2023-09-07T01:41:57;4.18;;;2.90;;
30635;SDS011;17400;52.392;9.750;2023-09-07T01:44:25;4.50;;;2.90;;
30635;SDS011;17400;52.392;9.750;2023-09-07T01:46:53;4.57;;;2.92;;
30635;SDS011;17400;52.392;9.750;2023-09-07T01:49:21;6.57;;;3.47;;
30635;SDS011;17400;52.392;9.750;2023-09-07T01:51:50;5.20;;;3.33;;
30635;SDS011;17400;52.392;9.750;2023-09-07T01:54:18;3.20;;;2.42;;
30635;SDS011;17400;52.392;9.750;2023-09-07T01:56:49;5.70;;;3.08;;
30635;SDS011;17400;52.392;9.750;2023-09-07T01:59:17;4.38;;;3.40;;
30635;SDS011;17400;52.392;9.750;2023-09-07T02:01:45;4.45;;;3.28;;
30635;SDS011;17400;52.392;9.750;2023-09-07T02:04:13;5.72;;;3.22;;
30635;SDS011;17400;52.392;9.750;2023-09-07T02:06:41;4.10;;;2.83;;
30635;SDS011;17400;52.392;9.750;2023-09-07T02:09:09;5.32;;;3.22;;
30635;SDS011;17400;52.392;9.750;2023-09-07T02:11:37;6.65;;;3.65;;
30635;SDS011;17400;52.392;9.750;2023-09-07T02:14:07;4.65;;;3.45;;
30635;SDS011;17400;52.392;9.750;2023-09-07T02:16:37;6.60;;;4.20;;
30635;SDS011;17400;52.392;9.750;2023-09-07T02:19:05;4.53;;;2.83;;
30635;SDS011;17400;52.392;9.750;2023-09-07T02:21:33;4.68;;;2.95;;
30635;SDS011;17400;52.392;9.750;2023-09-07T02:24:02;5.18;;;3.25;;
30635;SDS011;17400;52.392;9.750;2023-09-07T02:26:30;4.47;;;2.75;;
30635;SDS011;17400;52.392;9.750;2023-09-07T02:28:58;5.35;;;3.40;;
30635;SDS011;17400;52.392;9.750;2023-09-07T02:31:27;5.53;;;3.30;;
30635;SDS011;17400;52.392;9.750;2023-09-07T02:33:55;6.15;;;3.80;;
30635;SDS011;17400;52.392;9.750;2023-09-07T02:36:23;4.90;;;3.40;;
30635;SDS011;17400;52.392;9.750;2023-09-07T02:38:51;5.38;;;3.35;;
30635;SDS011;17400;52.392;9.750;2023-09-07T02:41:18;5.93;;;2.95;;
30635;SDS011;17400;52.392;9.750;2023-09-07T02:43:46;4.65;;;3.10;;
30635;SDS011;17400;52.392;9.750;2023-09-07T02:46:14;7.22;;;3.38;;
30635;SDS011;17400;52.392;9.750;2023-09-07T02:48:44;4.97;;;3.38;;
30635;SDS011;17400;52.392;9.750;2023-09-07T02:51:12;5.43;;;3.38;;
30635;SDS011;17400;52.392;9.750;2023-09-07T02:53:40;6.78;;;4.18;;
30635;SDS011;17400;52.392;9.750;2023-09-07T02:56:08;9.50;;;4.00;;
30635;SDS011;17400;52.392;9.750;2023-09-07T02:58:37;6.43;;;3.83;;
30635;SDS011;17400;52.392;9.750;2023-09-07T03:01:06;4.80;;;3.28;;
30635;SDS011;17400;52.392;9.750;2023-09-07T03:03:35;5.22;;;3.47;;
30635;SDS011;17400;52.392;9.750;2023-09-07T03:06:11;6.35;;;3.85;;
30635;SDS011;17400;52.392;9.750;2023-09-07T03:08:40;5.55;;;3.22;;
30635;SDS011;17400;52.392;9.750;2023-09-07T03:11:09;4.60;;;3.28;;
30635;SDS011;17400;52.392;9.750;2023-09-07T03:13:37;5.00;;;3.30;;
30635;SDS011;17400;52.392;9.750;2023-09-07T03:16:05;5.47;;;3.35;;
30635;SDS011;17400;52.392;9.750;2023-09-07T03:18:34;5.90;;;3.80;;
30635;SDS011;17400;52.392;9.750;2023-09-07T03:21:02;6.20;;;4.13;;
30635;SDS011;17400;52.392;9.750;2023-09-07T03:23:32;5.88;;;3.88;;
30635;SDS011;17400;52.392;9.750;2023-09-07T03:26:00;6.88;;;3.95;;
30635;SDS011;17400;52.392;9.750;2023-09-07T03:28:28;4.43;;;3.22;;
30635;SDS011;17400;52.392;9.750;2023-09-07T03:30:56;7.40;;;3.30;;
30635;SDS011;17400;52.392;9.750;2023-09-07T03:33:24;6.05;;;3.80;;
30635;SDS011;17400;52.392;9.750;2023-09-07T03:35:52;6.45;;;3.95;;
30635;SDS011;17400;52.392;9.750;2023-09-07T03:38:25;5.82;;;3.08;;
30635;SDS011;17400;52.392;9.750;2023-09-07T03:40:54;4.55;;;3.42;;
30635;SDS011;17400;52.392;9.750;2023-09-07T03:43:22;7.03;;;3.88;;
30635;SDS011;17400;52.392;9.750;2023-09-07T03:45:50;7.35;;;4.40;;
30635;SDS011;17400;52.392;9.750;2023-09-07T03:48:23;5.38;;;3.25;;
30635;SDS011;17400;52.392;9.750;2023-09-07T03:50:51;5.85;;;3.58;;
30635;SDS011;17400;52.392;9.750;2023-09-07T03:53:19;8.15;;;4.32;;
30635;SDS011;17400;52.392;9.750;2023-09-07T03:55:47;4.85;;;3.70;;
30635;SDS011;17400;52.392;9.750;2023-09-07T03:58:16;6.00;;;3.60;;
30635;SDS011;17400;52.392;9.750;2023-09-07T04:00:44;8.25;;;4.22;;
30635;SDS011;17400;52.392;9.750;2023-09-07T04:03:12;7.88;;;3.47;;
30635;SDS011;17400;52.392;9.750;2023-09-07T04:05:41;5.38;;;3.58;;
30635;SDS011;17400;52.392;9.750;2023-09-07T04:08:09;6.68;;;4.22;;
30635;SDS011;17400;52.392;9.750;2023-09-07T04:10:37;5.10;;;3.35;;
30635;SDS011;17400;52.392;9.750;2023-09-07T04:13:05;6.15;;;3.58;;
30635;SDS011;17400;52.392;9.750;2023-09-07T04:15:39;7.40;;;4.20;;
30635;SDS011;17400;52.392;9.750;2023-09-07T04:18:09;8.32;;;4.25;;
30635;SDS011;17400;52.392;9.750;2023-09-07T04:20:39;7.07;;;3.85;;
30635;SDS011;17400;52.392;9.750;2023-09-07T04:23:07;4.60;;;3.53;;
30635;SDS011;17400;52.392;9.750;2023-09-07T04:25:34;7.32;;;4.47;;
30635;SDS011;17400;52.392;9.750;2023-09-07T04:28:05;6.80;;;4.40;;
30635;SDS011;17400;52.392;9.750;2023-09-07T04:30:38;5.32;;;4.25;;
30635;SDS011;17400;52.392;9.750;2023-09-07T04:33:07;5.80;;;3.72;;
30635;SDS011;17400;52.392;9.750;2023-09-07T04:35:35;7.50;;;4.07;;
30635;SDS011;17400;52.392;9.750;2023-09-07T04:38:03;5.85;;;3.90;;
30635;SDS011;17400;52.392;9.750;2023-09-07T04:40:31;5.32;;;3.83;;
30635;SDS011;17400;52.392;9.750;2023-09-07T04:42:59;8.07;;;4.15;;
30635;SDS011;17400;52.392;9.750;2023-09-07T04:45:27;5.18;;;3.67;;
30635;SDS011;17400;52.392;9.750;2023-09-07T04:47:56;6.05;;;3.80;;
30635;SDS011;17400;52.392;9.750;2023-09-07T04:50:24;8.43;;;3.70;;
30635;SDS011;17400;52.392;9.750;2023-09-07T04:52:52;6.30;;;3.90;;
30635;SDS011;17400;52.392;9.750;2023-09-07T04:55:20;8.60;;;3.53;;
30635;SDS011;17400;52.392;9.750;2023-09-07T04:57:48;6.82;;;4.75;;
30635;SDS011;17400;52.392;9.750;2023-09-07T05:00:16;7.35;;;4.00;;
30635;SDS011;17400;52.392;9.750;2023-09-07T05:02:44;6.95;;;3.88;;
30635;SDS011;17400;52.392;9.750;2023-09-07T05:05:15;8.00;;;4.00;;
30635;SDS011;17400;52.392;9.750;2023-09-07T05:07:42;8.23;;;4.15;;
30635;SDS011;17400;52.392;9.750;2023-09-07T05:10:10;6.07;;;3.83;;
30635;SDS011;17400;52.392;9.750;2023-09-07T05:12:39;5.80;;;3.78;;
30635;SDS011;17400;52.392;9.750;2023-09-07T05:15:07;7.65;;;4.85;;
30635;SDS011;17400;52.392;9.750;2023-09-07T05:17:35;6.43;;;3.78;;
30635;SDS011;17400;52.392;9.750;2023-09-07T05:20:03;6.00;;;4.45;;
30635;SDS011;17400;52.392;9.750;2023-09-07T05:22:33;7.03;;;4.07;;
30635;SDS011;17400;52.392;9.750;2023-09-07T05:25:03;7.05;;;4.25;;
30635;SDS011;17400;52.392;9.750;2023-09-07T05:27:33;5.50;;;4.25;;
30635;SDS011;17400;52.392;9.750;2023-09-07T05:30:01;6.82;;;4.30;;
30635;SDS011;17400;52.392;9.750;2023-09-07T05:32:29;7.90;;;4.32;;
30635;SDS011;17400;52.392;9.750;2023-09-07T05:34:57;6.90;;;4.45;;
30635;SDS011;17400;52.392;9.750;2023-09-07T05:37:24;6.75;;;4.20;;
30635;SDS011;17400;52.392;9.750;2023-09-07T05:39:53;6.10;;;4.43;;
30635;SDS011;17400;52.392;9.750;2023-09-07T05:42:21;7.28;;;4.63;;
30635;SDS011;17400;52.392;9.750;2023-09-07T05:44:49;6.57;;;4.32;;
30635;SDS011;17400;52.392;9.750;2023-09-07T05:47:21;7.50;;;5.00;;
30635;SDS011;17400;52.392;9.750;2023-09-07T05:49:49;10.95;;;5.65;;
30635;SDS011;17400;52.392;9.750;2023-09-07T05:52:17;7.03;;;3.92;;
30635;SDS011;17400;52.392;9.750;2023-09-07T05:54:45;7.13;;;4.30;;
30635;SDS011;17400;52.392;9.750;2023-09-07T05:57:14;6.75;;;4.07;;
30635;SDS011;17400;52.392;9.750;2023-09-07T05:59:42;6.50;;;4.15;;
30635;SDS011;17400;52.392;9.750;2023-09-07T06:02:10;6.80;;;3.80;;
30635;SDS011;17400;52.392;9.750;2023-09-07T06:04:38;5.60;;;3.92;;
30635;SDS011;17400;52.392;9.750;2023-09-07T06:07:06;9.25;;;3.85;;
30635;SDS011;17400;52.392;9.750;2023-09-07T06:09:33;7.75;;;4.30;;
30635;SDS011;17400;52.392;9.750;2023-09-07T06:12:03;7.97;;;4.70;;
30635;SDS011;17400;52.392;9.750;2023-09-07T06:14:32;7.68;;;4.03;;
30635;SDS011;17400;52.392;9.750;2023-09-07T06:17:01;6.93;;;4.38;;
30635;SDS011;17400;52.392;9.750;2023-09-07T06:19:29;5.63;;;3.85;;
30635;SDS011;17400;52.392;9.750;2023-09-07T06:21:57;8.63;;;5.05;;
30635;SDS011;17400;52.392;9.750;2023-09-07T06:24:25;7.22;;;4.35;;
30635;SDS011;17400;52.392;9.750;2023-09-07T06:26:53;7.43;;;4.20;;
30635;SDS011;17400;52.392;9.750;2023-09-07T06:29:21;6.07;;;3.78;;
30635;SDS011;17400;52.392;9.750;2023-09-07T06:31:51;6.97;;;4.60;;
30635;SDS011;17400;52.392;9.750;2023-09-07T06:34:19;10.77;;;3.70;;
30635;SDS011;17400;52.392;9.750;2023-09-07T06:36:47;5.70;;;4.10;;
30635;SDS011;17400;52.392;9.750;2023-09-07T06:39:16;8.60;;;4.72;;
30635;SDS011;17400;52.392;9.750;2023-09-07T06:41:45;7.55;;;4.63;;
30635;SDS011;17400;52.392;9.750;2023-09-07T06:44:14;7.32;;;4.70;;
30635;SDS011;17400;52.392;9.750;2023-09-07T06:46:42;6.60;;;4.35;;
30635;SDS011;17400;52.392;9.750;2023-09-07T06:49:12;9.55;;;5.63;;
30635;SDS011;17400;52.392;9.750;2023-09-07T06:51:40;8.18;;;4.90;;
30635;SDS011;17400;52.392;9.750;2023-09-07T06:54:07;7.88;;;4.57;;
30635;SDS011;17400;52.392;9.750;2023-09-07T06:56:36;5.88;;;3.97;;
30635;SDS011;17400;52.392;9.750;2023-09-07T06:59:04;6.43;;;3.90;;
30635;SDS011;17400;52.392;9.750;2023-09-07T07:01:32;6.85;;;4.82;;
30635;SDS011;17400;52.392;9.750;2023-09-07T07:03:59;10.07;;;3.83;;
30635;SDS011;17400;52.392;9.750;2023-09-07T07:06:29;8.18;;;4.93;;
30635;SDS011;17400;52.392;9.750;2023-09-07T07:08:57;8.40;;;4.55;;
30635;SDS011;17400;52.392;9.750;2023-09-07T07:11:24;10.20;;;4.18;;
30635;SDS011;17400;52.392;9.750;2023-09-07T07:13:52;9.02;;;4.57;;
30635;SDS011;17400;52.392;9.750;2023-09-07T07:16:20;7.68;;;4.32;;
30635;SDS011;17400;52.392;9.750;2023-09-07T07:18:48;6.80;;;4.47;;
30635;SDS011;17400;52.392;9.750;2023-09-07T07:21:35;5.95;;;3.50;;
30635;SDS011;17400;52.392;9.750;2023-09-07T07:24:03;7.07;;;4.60;;
30635;SDS011;17400;52.392;9.750;2023-09-07T07:26:33;9.48;;;5.60;;
30635;SDS011;17400;52.392;9.750;2023-09-07T07:29:01;13.27;;;4.70;;
30635;SDS011;17400;52.392;9.750;2023-09-07T07:31:48;9.40;;;5.38;;
30635;SDS011;17400;52.392;9.750;2023-09-07T07:34:16;9.65;;;4.68;;
30635;SDS011;17400;52.392;9.750;2023-09-07T07:36:45;6.35;;;3.78;;
30635;SDS011;17400;52.392;9.750;2023-09-07T07:39:12;6.45;;;4.13;;
30635;SDS011;17400;52.392;9.750;2023-09-07T07:41:42;6.47;;;4.43;;
30635;SDS011;17400;52.392;9.750;2023-09-07T07:44:12;7.00;;;4.68;;
30635;SDS011;17400;52.392;9.750;2023-09-07T07:46:39;9.95;;;4.18;;
30635;SDS011;17400;52.392;9.750;2023-09-07T07:49:07;6.95;;;4.25;;
30635;SDS011;17400;52.392;9.750;2023-09-07T07:51:36;6.55;;;3.97;;
30635;SDS011;17400;52.392;9.750;2023-09-07T07:54:05;6.55;;;4.15;;
30635;SDS011;17400;52.392;9.750;2023-09-07T07:56:33;4.70;;;4.13;;
30635;SDS011;17400;52.392;9.750;2023-09-07T07:59:01;6.63;;;4.43;;
30635;SDS011;17400;52.392;9.750;2023-09-07T08:01:29;6.68;;;3.97;;
30635;SDS011;17400;52.392;9.750;2023-09-07T08:03:57;6.13;;;4.10;;
30635;SDS011;17400;52.392;9.750;2023-09-07T08:06:29;7.50;;;4.68;;
30635;SDS011;17400;52.392;9.750;2023-09-07T08:08:57;7.63;;;4.07;;
30635;SDS011;17400;52.392;9.750;2023-09-07T08:11:26;8.45;;;4.00;;
30635;SDS011;17400;52.392;9.750;2023-09-07T08:13:54;5.65;;;4.13;;
30635;SDS011;17400;52.392;9.750;2023-09-07T08:16:22;6.00;;;4.15;;
30635;SDS011;17400;52.392;9.750;2023-09-07T08:18:50;6.38;;;4.07;;
30635;SDS011;17400;52.392;9.750;2023-09-07T08:21:18;7.70;;;4.20;;
30635;SDS011;17400;52.392;9.750;2023-09-07T08:23:45;6.72;;;4.28;;
30635;SDS011;17400;52.392;9.750;2023-09-07T08:26:13;7.28;;;4.03;;
30635;SDS011;17400;52.392;9.750;2023-09-07T08:28:43;7.60;;;4.57;;
30635;SDS011;17400;52.392;9.750;2023-09-07T08:31:13;4.97;;;3.65;;
30635;SDS011;17400;52.392;9.750;2023-09-07T08:33:48;6.45;;;3.90;;
30635;SDS011;17400;52.392;9.750;2023-09-07T08:36:17;6.55;;;3.85;;
30635;SDS011;17400;52.392;9.750;2023-09-07T08:38:49;6.93;;;3.95;;
30635;SDS011;17400;52.392;9.750;2023-09-07T08:41:20;6.20;;;3.40;;
30635;SDS011;17400;52.392;9.750;2023-09-07T08:43:50;5.18;;;3.88;;
30635;SDS011;17400;52.392;9.750;2023-09-07T08:46:21;7.82;;;3.97;;
30635;SDS011;17400;52.392;9.750;2023-09-07T08:48:51;9.20;;;4.43;;
30635;SDS011;17400;52.392;9.750;2023-09-07T08:51:23;7.00;;;3.60;;
30635;SDS011;17400;52.392;9.750;2023-09-07T08:53:54;6.18;;;3.65;;
30635;SDS011;17400;52.392;9.750;2023-09-07T08:56:22;4.93;;;3.38;;
30635;SDS011;17400;52.392;9.750;2023-09-07T08:58:52;5.28;;;3.80;;
30635;SDS011;17400;52.392;9.750;2023-09-07T09:01:19;5.85;;;4.30;;
30635;SDS011;17400;52.392;9.750;2023-09-07T09:03:48;6.45;;;4.40;;
30635;SDS011;17400;52.392;9.750;2023-09-07T09:06:18;6.07;;;3.75;;
30635;SDS011;17400;52.392;9.750;2023-09-07T09:08:47;5.60;;;3.75;;
30635;SDS011;17400;52.392;9.750;2023-09-07T09:11:17;7.07;;;3.55;;
30635;SDS011;17400;52.392;9.750;2023-09-07T09:13:46;7.22;;;3.92;;
30635;SDS011;17400;52.392;9.750;2023-09-07T09:16:16;6.22;;;3.63;;
30635;SDS011;17400;52.392;9.750;2023-09-07T09:18:47;6.10;;;3.50;;
30635;SDS011;17400;52.392;9.750;2023-09-07T09:21:18;5.95;;;4.10;;
30635;SDS011;17400;52.392;9.750;2023-09-07T09:23:47;5.63;;;3.55;;
30635;SDS011;17400;52.392;9.750;2023-09-07T09:26:17;5.72;;;4.05;;
30635;SDS011;17400;52.392;9.750;2023-09-07T09:28:46;6.30;;;3.97;;
30635;SDS011;17400;52.392;9.750;2023-09-07T09:31:14;6.68;;;3.78;;
30635;SDS011;17400;52.392;9.750;2023-09-07T09:33:47;6.78;;;4.75;;
30635;SDS011;17400;52.392;9.750;2023-09-07T09:36:17;5.85;;;3.45;;
30635;SDS011;17400;52.392;9.750;2023-09-07T09:38:47;7.07;;;4.00;;
30635;SDS011;17400;52.392;9.750;2023-09-07T09:41:16;5.70;;;4.43;;
30635;SDS011;17400;52.392;9.750;2023-09-07T09:43:45;7.13;;;3.97;;
30635;SDS011;17400;52.392;9.750;2023-09-07T09:46:15;5.25;;;3.38;;
30635;SDS011;17400;52.392;9.750;2023-09-07T09:48:45;7.95;;;4.35;;
30635;SDS011;17400;52.392;9.750;2023-09-07T09:51:15;7.55;;;4.80;;
30635;SDS011;17400;52.392;9.750;2023-09-07T09:53:43;7.07;;;4.45;;
30635;SDS011;17400;52.392;9.750;2023-09-07T09:56:15;7.30;;;4.60;;
30635;SDS011;17400;52.392;9.750;2023-09-07T09:58:43;5.47;;;3.65;;
30635;SDS011;17400;52.392;9.750;2023-09-07T10:01:11;5.15;;;3.75;;
30635;SDS011;17400;52.392;9.750;2023-09-07T10:03:42;8.27;;;4.05;;
30635;SDS011;17400;52.392;9.750;2023-09-07T10:06:19;5.32;;;3.83;;
30635;SDS011;17400;52.392;9.750;2023-09-07T10:08:52;5.80;;;3.78;;
30635;SDS011;17400;52.392;9.750;2023-09-07T10:11:26;7.30;;;3.83;;
30635;SDS011;17400;52.392;9.750;2023-09-07T10:13:57;5.05;;;3.50;;
30635;SDS011;17400;52.392;9.750;2023-09-07T10:16:25;5.25;;;4.15;;
30635;SDS011;17400;52.392;9.750;2023-09-07T10:18:54;4.60;;;3.08;;
30635;SDS011;17400;52.392;9.750;2023-09-07T10:21:25;6.30;;;4.25;;
30635;SDS011;17400;52.392;9.750;2023-09-07T10:23:53;5.18;;;3.97;;
30635;SDS011;17400;52.392;9.750;2023-09-07T10:26:21;5.80;;;3.67;;
30635;SDS011;17400;52.392;9.750;2023-09-07T10:28:58;6.60;;;4.25;;
30635;SDS011;17400;52.392;9.750;2023-09-07T10:31:26;5.63;;;3.95;;
30635;SDS011;17400;52.392;9.750;2023-09-07T10:34:13;4.60;;;3.65;;
30635;SDS011;17400;52.392;9.750;2023-09-07T10:36:45;5.72;;;3.40;;
30635;SDS011;17400;52.392;9.750;2023-09-07T10:39:14;6.90;;;4.30;;
30635;SDS011;17400;52.392;9.750;2023-09-07T10:41:45;4.85;;;3.30;;
30635;SDS011;17400;52.392;9.750;2023-09-07T10:44:13;15.57;;;4.03;;
30635;SDS011;17400;52.392;9.750;2023-09-07T10:46:41;7.63;;;4.05;;
30635;SDS011;17400;52.392;9.750;2023-09-07T10:49:11;6.40;;;4.40;;
30635;SDS011;17400;52.392;9.750;2023-09-07T10:51:40;6.72;;;3.42;;
30635;SDS011;17400;52.392;9.750;2023-09-07T10:54:14;5.75;;;3.72;;
30635;SDS011;17400;52.392;9.750;2023-09-07T10:56:43;4.97;;;3.78;;
30635;SDS011;17400;52.392;9.750;2023-09-07T10:59:12;5.10;;;3.67;;
30635;SDS011;17400;52.392;9.750;2023-09-07T11:01:41;4.47;;;3.10;;
30635;SDS011;17400;52.392;9.750;2023-09-07T11:04:09;5.90;;;3.85;;
30635;SDS011;17400;52.392;9.750;2023-09-07T11:06:38;8.27;;;3.58;;
30635;SDS011;17400;52.392;9.750;2023-09-07T11:09:08;6.55;;;3.38;;
30635;SDS011;17400;52.392;9.750;2023-09-07T11:11:39;6.13;;;4.25;;
30635;SDS011;17400;52.392;9.750;2023-09-07T11:14:07;6.18;;;3.67;;
30635;SDS011;17400;52.392;9.750;2023-09-07T11:16:35;5.53;;;3.90;;
30635;SDS011;17400;52.392;9.750;2023-09-07T11:19:03;5.38;;;3.47;;
30635;SDS011;17400;52.392;9.750;2023-09-07T11:21:32;7.13;;;3.88;;
30635;SDS011;17400;52.392;9.750;2023-09-07T11:24:02;7.28;;;3.85;;
30635;SDS011;17400;52.392;9.750;2023-09-07T11:26:41;6.68;;;4.25;;
30635;SDS011;17400;52.392;9.750;2023-09-07T11:29:13;5.80;;;3.13;;
30635;SDS011;17400;52.392;9.750;2023-09-07T11:31:41;6.53;;;3.55;;
30635;SDS011;17400;52.392;9.750;2023-09-07T11:34:09;5.60;;;3.65;;
30635;SDS011;17400;52.392;9.750;2023-09-07T11:36:39;4.50;;;3.35;;
30635;SDS011;17400;52.392;9.750;2023-09-07T11:39:07;3.72;;;2.83;;
30635;SDS011;17400;52.392;9.750;2023-09-07T11:41:39;4.53;;;2.80;;
30635;SDS011;17400;52.392;9.750;2023-09-07T11:44:08;6.25;;;3.15;;
30635;SDS011;17400;52.392;9.750;2023-09-07T11:46:37;4.03;;;2.85;;
30635;SDS011;17400;52.392;9.750;2023-09-07T11:49:06;4.03;;;3.08;;
30635;SDS011;17400;52.392;9.750;2023-09-07T11:51:36;3.83;;;2.33;;
30635;SDS011;17400;52.392;9.750;2023-09-07T11:54:04;4.88;;;3.40;;
30635;SDS011;17400;52.392;9.750;2023-09-07T11:56:32;5.53;;;3.65;;
30635;SDS011;17400;52.392;9.750;2023-09-07T11:59:04;9.05;;;2.63;;
30635;SDS011;17400;52.392;9.750;2023-09-07T12:01:33;6.53;;;3.47;;
30635;SDS011;17400;52.392;9.750;2023-09-07T12:04:01;5.40;;;3.30;;
30635;SDS011;17400;52.392;9.750;2023-09-07T12:06:30;6.82;;;3.72;;
30635;SDS011;17400;52.392;9.750;2023-09-07T12:08:59;4.53;;;3.00;;
30635;SDS011;17400;52.392;9.750;2023-09-07T12:11:27;4.40;;;3.10;;
30635;SDS011;17400;52.392;9.750;2023-09-07T12:13:55;4.75;;;3.60;;
30635;SDS011;17400;52.392;9.750;2023-09-07T12:16:24;5.95;;;3.92;;
30635;SDS011;17400;52.392;9.750;2023-09-07T12:18:54;6.07;;;3.78;;
30635;SDS011;17400;52.392;9.750;2023-09-07T12:21:22;4.90;;;3.15;;
30635;SDS011;17400;52.392;9.750;2023-09-07T12:23:50;5.57;;;3.53;;
30635;SDS011;17400;52.392;9.750;2023-09-07T12:26:18;5.28;;;2.80;;
30635;SDS011;17400;52.392;9.750;2023-09-07T12:28:48;3.55;;;2.75;;
30635;SDS011;17400;52.392;9.750;2023-09-07T12:31:15;6.28;;;4.13;;
30635;SDS011;17400;52.392;9.750;2023-09-07T12:33:43;7.00;;;3.85;;
30635;SDS011;17400;52.392;9.750;2023-09-07T12:36:13;5.68;;;4.22;;
30635;SDS011;17400;52.392;9.750;2023-09-07T12:38:40;5.75;;;4.00;;
30635;SDS011;17400;52.392;9.750;2023-09-07T12:41:08;3.60;;;3.08;;
30635;SDS011;17400;52.392;9.750;2023-09-07T12:43:36;5.18;;;2.63;;
30635;SDS011;17400;52.392;9.750;2023-09-07T12:46:04;3.95;;;2.75;;
30635;SDS011;17400;52.392;9.750;2023-09-07T12:48:32;4.25;;;3.08;;
30635;SDS011;17400;52.392;9.750;2023-09-07T12:51:00;4.50;;;2.90;;
30635;SDS011;17400;52.392;9.750;2023-09-07T12:53:30;4.07;;;2.72;;
30635;SDS011;17400;52.392;9.750;2023-09-07T12:55:58;4.07;;;2.72;;
30635;SDS011;17400;52.392;9.750;2023-09-07T12:58:28;4.13;;;2.90;;
30635;SDS011;17400;52.392;9.750;2023-09-07T13:00:55;4.95;;;3.28;;
30635;SDS011;17400;52.392;9.750;2023-09-07T13:03:23;5.28;;;3.75;;
30635;SDS011;17400;52.392;9.750;2023-09-07T13:05:51;4.65;;;3.33;;
30635;SDS011;17400;52.392;9.750;2023-09-07T13:08:19;5.00;;;3.58;;
30635;SDS011;17400;52.392;9.750;2023-09-07T13:10:49;4.85;;;3.42;;
30635;SDS011;17400;52.392;9.750;2023-09-07T13:13:16;4.50;;;3.45;;
30635;SDS011;17400;52.392;9.750;2023-09-07T13:15:45;3.33;;;2.88;;
30635;SDS011;17400;52.392;9.750;2023-09-07T13:18:13;4.85;;;3.17;;
30635;SDS011;17400;52.392;9.750;2023-09-07T13:20:41;6.22;;;3.72;;
30635;SDS011;17400;52.392;9.750;2023-09-07T13:23:09;4.85;;;3.40;;
30635;SDS011;17400;52.392;9.750;2023-09-07T13:25:37;4.30;;;3.50;;
30635;SDS011;17400;52.392;9.750;2023-09-07T13:28:06;3.63;;;2.83;;
30635;SDS011;17400;52.392;9.750;2023-09-07T13:30:34;4.78;;;4.00;;
30635;SDS011;17400;52.392;9.750;2023-09-07T13:33:02;4.00;;;2.90;;
30635;SDS011;17400;52.392;9.750;2023-09-07T13:35:30;3.45;;;3.08;;
30635;SDS011;17400;52.392;9.750;2023-09-07T13:37:58;4.47;;;3.65;;
30635;SDS011;17400;52.392;9.750;2023-09-07T13:40:26;4.80;;;3.03;;
30635;SDS011;17400;52.392;9.750;2023-09-07T13:42:55;3.65;;;2.55;;
30635;SDS011;17400;52.392;9.750;2023-09-07T13:45:25;4.90;;;3.13;;
30635;SDS011;17400;52.392;9.750;2023-09-07T13:47:53;4.30;;;3.20;;
30635;SDS011;17400;52.392;9.750;2023-09-07T13:50:21;3.85;;;2.85;;
30635;SDS011;17400;52.392;9.750;2023-09-07T13:52:50;4.28;;;3.50;;
30635;SDS011;17400;52.392;9.750;2023-09-07T13:55:17;3.72;;;2.85;;
30635;SDS011;17400;52.392;9.750;2023-09-07T13:57:45;3.60;;;2.78;;
30635;SDS011;17400;52.392;9.750;2023-09-07T14:00:14;4.53;;;3.03;;
30635;SDS011;17400;52.392;9.750;2023-09-07T14:02:43;11.88;;;3.33;;
30635;SDS011;17400;52.392;9.750;2023-09-07T14:05:11;3.05;;;2.45;;
30635;SDS011;17400;52.392;9.750;2023-09-07T14:07:39;5.28;;;2.92;;
30635;SDS011;17400;52.392;9.750;2023-09-07T14:10:07;3.90;;;2.58;;
30635;SDS011;17400;52.392;9.750;2023-09-07T14:12:35;4.93;;;2.70;;
30635;SDS011;17400;52.392;9.750;2023-09-07T14:15:03;3.30;;;2.85;;
30635;SDS011;17400;52.392;9.750;2023-09-07T14:17:32;4.57;;;3.20;;
30635;SDS011;17400;52.392;9.750;2023-09-07T14:20:01;4.70;;;3.17;;
30635;SDS011;17400;52.392;9.750;2023-09-07T14:22:29;4.20;;;3.50;;
30635;SDS011;17400;52.392;9.750;2023-09-07T14:24:57;2.95;;;2.20;;
30635;SDS011;17400;52.392;9.750;2023-09-07T14:27:25;5.43;;;3.38;;
30635;SDS011;17400;52.392;9.750;2023-09-07T14:29:53;3.72;;;2.83;;
30635;SDS011;17400;52.392;9.750;2023-09-07T14:32:20;3.13;;;2.55;;
30635;SDS011;17400;52.392;9.750;2023-09-07T14:34:48;3.97;;;3.10;;
30635;SDS011;17400;52.392;9.750;2023-09-07T14:37:18;3.63;;;2.75;;
30635;SDS011;17400;52.392;9.750;2023-09-07T14:39:45;4.22;;;3.03;;
30635;SDS011;17400;52.392;9.750;2023-09-07T14:42:16;7.43;;;2.95;;
30635;SDS011;17400;52.392;9.750;2023-09-07T14:44:46;7.38;;;3.40;;
30635;SDS011;17400;52.392;9.750;2023-09-07T14:47:14;3.45;;;2.70;;
30635;SDS011;17400;52.392;9.750;2023-09-07T14:49:42;4.63;;;3.25;;
30635;SDS011;17400;52.392;9.750;2023-09-07T14:52:10;4.32;;;3.33;;
30635;SDS011;17400;52.392;9.750;2023-09-07T14:54:40;3.97;;;3.05;;
30635;SDS011;17400;52.392;9.750;2023-09-07T14:57:09;4.82;;;3.40;;